Time;durP1;ratioP1;P1;durP2;ratioP2;P2;SDS_P1;SDS_P2;PMS_P1;PMS_P2;Temp;Humidity;BMP_temperature;BMP_pressure;BME280_temperature;BME280_humidity;BME280_pressure;Samples;Min_cycle;Max_cycle;Signal;HPM_P1;HPM_P2
2021/08/13 00:00:25;;;;;;;8.80;5.70;;;;;;;14.19;79.25;101165.17;93729;1204;90084;-59
2021/08/13 00:02:50;;;;;;;7.30;5.60;;;;;;;14.18;79.24;101163.61;93752;1203;93977;-59
2021/08/13 00:04:58;;;;;;;10.00;5.50;;;;;;;14.14;79.37;101160.33;93690;1203;82190;-59
2021/08/13 00:07:07;;;;;;;9.10;5.40;;;;;;;14.13;79.44;101161.70;93762;1204;82060;-59
2021/08/13 00:09:14;;;;;;;5.60;5.00;;;;;;;14.15;79.44;101161.70;93741;1204;97887;-59
2021/08/13 00:11:22;;;;;;;8.00;6.00;;;;;;;14.14;79.47;101163.33;93722;1205;89624;-59
2021/08/13 00:13:30;;;;;;;9.00;5.60;;;;;;;14.12;79.43;101165.67;93666;1204;95384;-62
2021/08/13 00:15:37;;;;;;;6.90;5.30;;;;;;;14.09;79.42;101164.45;93730;1204;78632;-62
2021/08/13 00:17:45;;;;;;;7.40;5.10;;;;;;;14.07;79.52;101163.13;93680;1205;81276;-62
2021/08/13 00:19:56;;;;;;;7.50;5.40;;;;;;;14.05;79.52;101164.91;93739;1205;96145;-62
2021/08/13 00:22:04;;;;;;;6.10;5.30;;;;;;;14.04;79.43;101168.33;93686;1205;88258;-62
2021/08/13 00:24:15;;;;;;;9.20;5.80;;;;;;;14.02;79.44;101170.92;93682;1204;94151;-62
2021/08/13 00:26:23;;;;;;;7.90;5.30;;;;;;;13.98;79.55;101170.72;93699;1204;80046;-63
2021/08/13 00:28:30;;;;;;;8.40;5.30;;;;;;;13.94;79.61;101169.93;93673;1204;81828;-62
2021/08/13 00:30:39;;;;;;;6.40;5.20;;;;;;;13.92;79.75;101165.73;93682;1205;96964;-62
2021/08/13 00:32:47;;;;;;;11.20;6.10;;;;;;;13.92;79.62;101171.40;93726;1196;86703;-62
2021/08/13 00:34:54;;;;;;;7.80;6.00;;;;;;;13.92;79.74;101171.20;93716;1205;94387;-62
2021/08/13 00:37:02;;;;;;;7.50;5.60;;;;;;;13.91;79.79;101171.40;93662;1196;77992;-59
2021/08/13 00:39:10;;;;;;;5.90;5.20;;;;;;;13.89;79.71;101172.21;93731;1196;80017;-59
2021/08/13 00:41:20;;;;;;;8.40;5.30;;;;;;;13.87;79.74;101172.83;93695;1205;96667;-60
2021/08/13 00:43:28;;;;;;;8.60;6.10;;;;;;;13.89;79.83;101170.83;93697;1204;87723;-59
2021/08/13 00:45:36;;;;;;;8.10;4.90;;;;;;;13.88;79.89;101168.90;93674;1205;94551;-59
2021/08/13 00:47:44;;;;;;;9.40;5.70;;;;;;;13.88;79.89;101169.19;93723;1196;78577;-62
2021/08/13 00:49:52;;;;;;;7.90;5.90;;;;;;;13.83;79.80;101172.65;93712;1204;80388;-63
2021/08/13 00:52:00;;;;;;;9.60;6.80;;;;;;;13.79;79.81;101173.85;93703;1205;98126;-61
2021/08/13 00:54:11;;;;;;;7.60;6.00;;;;;;;13.76;79.88;101171.14;93717;1204;87660;-62
2021/08/13 00:56:19;;;;;;;6.80;5.60;;;;;;;13.78;79.95;101172.45;93687;1205;92561;-62
2021/08/13 00:58:27;;;;;;;8.00;5.70;;;;;;;13.77;79.99;101170.55;93730;1204;79899;-58
2021/08/13 01:00:35;;;;;;;8.80;5.50;;;;;;;13.75;79.98;101170.55;93702;1205;81597;-59
2021/08/13 01:02:43;;;;;;;7.70;5.80;;;;;;;13.76;80.05;101169.05;93756;1196;96729;-62
2021/08/13 01:04:51;;;;;;;8.70;5.40;;;;;;;13.76;80.03;101171.73;93701;1196;86321;-62
2021/08/13 01:06:59;;;;;;;8.80;5.90;;;;;;;13.75;80.11;101168.58;93664;1203;93632;-61
2021/08/13 01:09:10;;;;;;;7.10;5.80;;;;;;;13.74;79.99;101168.20;93702;1205;79629;-62
2021/08/13 01:11:27;;;;;;;7.20;5.80;;;;;;;13.70;80.01;101167.42;93687;1204;81460;-61
2021/08/13 01:13:45;;;;;;;8.30;6.30;;;;;;;13.67;80.03;101167.29;93727;1204;97312;-62
2021/08/13 01:15:59;;;;;;;6.80;5.40;;;;;;;13.64;80.21;101165.24;93697;1204;87628;-61
2021/08/13 01:18:15;;;;;;;7.30;5.70;;;;;;;13.65;80.25;101163.58;93698;1205;94521;-58
2021/08/13 01:20:47;;;;;;;6.30;5.10;;;;;;;13.61;80.24;101164.02;93693;1204;80549;-58
2021/08/13 01:23:01;;;;;;;7.60;6.10;;;;;;;13.64;80.32;101163.17;93699;1204;81737;-63
2021/08/13 01:25:13;;;;;;;7.30;5.50;;;;;;;13.63;80.33;101163.50;93690;1205;97789;-62
2021/08/13 01:27:27;;;;;;;8.00;5.80;;;;;;;13.66;80.38;101162.88;93708;1196;86538;-59
2021/08/13 01:29:46;;;;;;;8.00;5.30;;;;;;;13.66;80.31;101163.84;93679;1205;94226;-59
2021/08/13 01:32:10;;;;;;;7.30;5.20;;;;;;;13.62;80.33;101161.16;93698;1204;80051;-60
2021/08/13 01:34:18;;;;;;;;;;;;;;;13.61;80.37;101160.53;93734;1205;81328;-60
2021/08/13 01:36:28;;;;;;;6.70;5.60;;;;;;;13.60;80.44;101158.30;93723;1205;97953;-59
2021/08/13 01:38:39;;;;;;;8.50;6.20;;;;;;;13.62;80.27;101158.53;93682;1204;87450;-58
2021/08/13 01:40:49;;;;;;;9.20;6.30;;;;;;;13.58;80.40;101156.02;93715;1205;93371;-59
2021/08/13 01:42:58;;;;;;;6.30;5.30;;;;;;;13.54;80.41;101157.42;93729;1205;81388;-62
2021/08/13 01:45:09;;;;;;;6.50;5.50;;;;;;;13.56;80.51;101159.23;93709;1205;82746;-62
2021/08/13 01:47:16;;;;;;;6.90;5.80;;;;;;;13.58;80.54;101157.89;93740;1204;97453;-62
2021/08/13 01:49:26;;;;;;;7.50;5.70;;;;;;;13.56;80.51;101160.30;93704;1205;87663;-63
2021/08/13 01:51:36;;;;;;;8.90;6.20;;;;;;;13.53;80.58;101156.34;93643;1205;94505;-63
2021/08/13 01:53:44;;;;;;;6.90;5.60;;;;;;;13.53;80.58;101157.39;93689;1195;80235;-62
2021/08/13 01:55:54;;;;;;;8.00;5.20;;;;;;;13.53;80.54;101154.53;93700;1196;80490;-62
2021/08/13 01:58:03;;;;;;;6.10;5.00;;;;;;;13.51;80.65;101153.96;93688;1204;99172;-59
2021/08/13 02:00:15;;;;;;;7.60;4.90;;;;;;;13.53;80.57;101153.77;93751;1204;88123;-59
2021/08/13 02:02:26;;;;;;;7.60;5.80;;;;;;;13.51;80.73;101150.54;93661;1204;93444;-59
2021/08/13 02:04:40;;;;;;;7.70;5.60;;;;;;;13.48;80.74;101149.63;93745;1204;79320;-59
2021/08/13 02:09:11;;;;;;;7.90;5.80;;;;;;;13.48;80.61;101153.73;93719;1205;98992;-59
2021/08/13 02:11:19;;;;;;;5.90;5.20;;;;;;;13.48;80.56;101154.02;93694;1205;87220;-59
2021/08/13 02:13:27;;;;;;;6.60;5.80;;;;;;;13.47;80.68;101155.59;93693;1205;93639;-58
2021/08/13 02:15:39;;;;;;;7.90;5.50;;;;;;;13.44;80.79;101158.21;93680;1196;78094;-59
2021/08/13 02:17:54;;;;;;;8.40;5.80;;;;;;;13.41;80.92;101161.85;93760;1205;80674;-60
2021/08/13 02:20:13;;;;;;;5.80;5.30;;;;;;;13.37;80.89;101169.14;93707;1203;99108;-59
2021/08/13 02:22:21;;;;;;;7.30;5.20;;;;;;;13.35;80.86;101170.46;93742;1205;88417;-60
2021/08/13 02:24:29;;;;;;;8.10;5.50;;;;;;;13.34;80.90;101168.61;93694;1196;92428;-60
2021/08/13 02:26:36;;;;;;;9.20;5.10;;;;;;;13.36;80.96;101167.00;93708;1205;80844;-58
2021/08/13 02:28:44;;;;;;;8.50;5.40;;;;;;;13.35;81.01;101170.34;93715;1204;80353;-60
2021/08/13 02:30:52;;;;;;;7.50;5.80;;;;;;;13.35;81.01;101166.86;93705;1204;96848;-59
2021/08/13 02:33:00;;;;;;;11.00;5.40;;;;;;;13.33;81.06;101166.25;93738;1204;86806;-63
2021/08/13 02:35:10;;;;;;;7.50;5.30;;;;;;;13.31;81.04;101166.52;93659;1204;92586;-63
2021/08/13 02:37:26;;;;;;;7.20;4.60;;;;;;;13.29;80.89;101166.62;93692;1196;79885;-62
2021/08/13 02:39:46;;;;;;;6.80;4.90;;;;;;;13.29;80.96;101168.25;93691;1204;82879;-62
2021/08/13 02:41:58;;;;;;;6.70;5.60;;;;;;;13.29;81.10;101168.95;93719;1204;97480;-61
2021/08/13 02:44:08;;;;;;;8.10;5.30;;;;;;;13.28;81.14;101167.64;93716;1204;87597;-62
2021/08/13 02:46:19;;;;;;;6.20;5.30;;;;;;;13.26;81.20;101171.98;93721;1204;95232;-59
2021/08/13 02:48:28;;;;;;;9.60;5.40;;;;;;;13.28;81.06;101174.46;93691;1205;81527;-60
2021/08/13 02:50:41;;;;;;;5.60;4.90;;;;;;;13.29;81.11;101176.90;93714;1204;81963;-58
2021/08/13 02:52:55;;;;;;;7.40;4.90;;;;;;;13.28;81.24;101177.58;93719;1204;97664;-59
2021/08/13 02:55:04;;;;;;;;;;;;;;;13.24;81.12;101181.09;93710;1205;87202;-59
2021/08/13 02:57:13;;;;;;;8.10;5.30;;;;;;;13.22;81.22;101179.75;93688;1204;93552;-62
2021/08/13 02:59:23;;;;;;;9.40;5.20;;;;;;;13.22;81.16;101184.27;93712;1204;81140;-63
2021/08/13 03:01:33;;;;;;;6.20;5.10;;;;;;;13.22;81.17;101184.46;93725;1195;80673;-62
2021/08/13 03:03:45;;;;;;;7.10;4.80;;;;;;;13.19;81.14;101180.13;93735;1204;98408;-63
2021/08/13 03:05:54;;;;;;;6.30;4.90;;;;;;;13.20;81.24;101176.39;93728;1204;89729;-63
2021/08/13 03:08:05;;;;;;;6.30;4.90;;;;;;;13.18;81.21;101179.20;93700;1204;93427;-58
2021/08/13 03:10:14;;;;;;;8.20;5.60;;;;;;;13.14;81.19;101182.19;93710;1196;79608;-59
2021/08/13 03:12:24;;;;;;;7.70;5.60;;;;;;;13.11;81.14;101179.19;93754;1204;80901;-63
2021/08/13 03:14:32;;;;;;;6.60;5.10;;;;;;;13.08;81.31;101177.37;93716;1205;96997;-63
2021/08/13 03:16:42;;;;;;;8.60;5.30;;;;;;;13.06;81.25;101175.95;93724;1203;87880;-63
2021/08/13 03:18:50;;;;;;;6.70;5.60;;;;;;;13.06;81.38;101178.85;93700;1204;93711;-59
2021/08/13 03:20:59;;;;;;;6.50;5.20;;;;;;;13.07;81.44;101178.73;93672;1190;78050;-59
2021/08/13 03:23:07;;;;;;;6.60;5.30;;;;;;;13.09;81.54;101182.98;93721;1203;81219;-58
2021/08/13 03:25:16;;;;;;;9.40;5.20;;;;;;;13.10;81.42;101181.21;93664;1196;98066;-58
2021/08/13 03:27:24;;;;;;;8.70;5.10;;;;;;;13.12;81.55;101181.94;93710;1204;87820;-61
2021/08/13 03:29:32;;;;;;;5.00;4.50;;;;;;;13.14;81.59;101176.18;93701;1204;93694;-62
2021/08/13 03:31:43;;;;;;;6.10;4.90;;;;;;;13.18;81.62;101177.87;93721;1204;77710;-63
2021/08/13 03:33:51;;;;;;;7.50;4.80;;;;;;;13.22;81.49;101179.01;93680;1204;81988;-59
2021/08/13 03:36:00;;;;;;;7.90;5.10;;;;;;;13.25;81.57;101174.08;93739;1204;99503;-59
2021/08/13 03:38:11;;;;;;;8.00;5.20;;;;;;;13.27;81.49;101172.30;93718;1204;88528;-59
2021/08/13 03:40:19;;;;;;;5.80;4.50;;;;;;;13.28;81.51;101169.10;93702;1204;93708;-60
2021/08/13 03:42:30;;;;;;;7.10;5.00;;;;;;;13.27;81.55;101168.40;93715;1198;76882;-59
2021/08/13 03:44:38;;;;;;;5.60;4.70;;;;;;;13.34;81.55;101170.08;93752;1195;80426;-60
2021/08/13 03:46:45;;;;;;;6.30;5.30;;;;;;;13.37;81.69;101165.05;93682;1196;97235;-60
2021/08/13 03:49:02;;;;;;;8.30;5.00;;;;;;;13.41;81.66;101163.66;93744;1195;86365;-60
2021/08/13 03:51:09;;;;;;;5.00;4.50;;;;;;;13.44;81.62;101167.20;93687;1204;94555;-60
2021/08/13 03:53:17;;;;;;;6.90;5.00;;;;;;;13.50;81.58;101162.50;93681;1204;80164;-58
2021/08/13 03:55:24;;;;;;;5.40;4.80;;;;;;;13.55;81.56;101167.52;93711;1205;81756;-59
2021/08/13 03:57:32;;;;;;;5.70;5.10;;;;;;;13.59;81.54;101167.69;93706;1204;98730;-62
2021/08/13 03:59:39;;;;;;;8.50;5.20;;;;;;;13.65;81.63;101169.64;93717;1205;88238;-63
2021/08/13 04:01:54;;;;;;;6.10;4.80;;;;;;;13.70;81.73;101170.12;93737;1204;94525;-63
2021/08/13 04:04:02;;;;;;;7.10;5.00;;;;;;;13.78;81.47;101164.90;93691;1204;80563;-58
2021/08/13 04:06:10;;;;;;;8.10;5.40;;;;;;;13.85;81.59;101165.14;93703;1204;81826;-59
2021/08/13 04:08:17;;;;;;;7.80;4.90;;;;;;;14.24;82.13;101163.05;93755;1196;97969;-62
2021/08/13 04:10:25;;;;;;;6.60;4.90;;;;;;;15.02;82.01;101161.99;93761;1203;88765;-63
2021/08/13 04:12:33;;;;;;;6.80;4.90;;;;;;;15.72;81.40;101165.36;93683;1205;94078;-62
2021/08/13 04:14:40;;;;;;;5.60;4.70;;;;;;;15.87;80.38;101164.02;93659;1204;81043;-62
2021/08/13 04:16:48;;;;;;;6.40;5.50;;;;;;;15.73;79.94;101166.20;93718;1204;79272;-62
2021/08/13 04:18:56;;;;;;;7.30;4.90;;;;;;;15.56;79.94;101169.52;93715;1204;97821;-59
2021/08/13 04:21:03;;;;;;;5.50;4.60;;;;;;;15.45;79.94;101169.84;93671;1204;87770;-59
2021/08/13 04:23:11;;;;;;;6.20;5.00;;;;;;;15.38;79.95;101169.80;93668;1204;93334;-63
2021/08/13 04:25:18;;;;;;;6.90;4.80;;;;;;;15.31;79.94;101171.35;93658;1203;81032;-62
2021/08/13 04:27:26;;;;;;;5.20;4.30;;;;;;;15.30;80.08;101175.30;93662;1196;80544;-62
2021/08/13 04:29:33;;;;;;;5.70;4.50;;;;;;;15.30;80.14;101174.61;93716;1204;98605;-63
2021/08/13 04:31:41;;;;;;;6.50;4.80;;;;;;;15.36;80.19;101178.15;93666;1196;87289;-62
2021/08/13 04:33:48;;;;;;;6.20;4.80;;;;;;;15.43;80.26;101182.25;93654;1204;93175;-62
2021/08/13 04:35:56;;;;;;;5.20;4.60;;;;;;;15.52;80.26;101188.48;93660;1204;79701;-62
2021/08/13 04:38:05;;;;;;;5.40;4.60;;;;;;;15.62;80.14;101191.30;93679;1204;81806;-63
2021/08/13 04:40:14;;;;;;;5.40;4.50;;;;;;;15.76;80.26;101189.81;93679;1204;98275;-59
2021/08/13 04:42:21;;;;;;;6.90;5.10;;;;;;;16.35;80.20;101188.83;93679;1204;88334;-59
2021/08/13 04:44:29;;;;;;;6.30;5.10;;;;;;;17.39;79.92;101192.95;93681;1204;94189;-59
2021/08/13 04:46:36;;;;;;;6.50;4.50;;;;;;;18.75;78.96;101188.26;93676;1204;78949;-59
2021/08/13 04:48:44;;;;;;;5.40;4.60;;;;;;;20.00;77.42;101187.50;93677;1204;81956;-64
2021/08/13 04:50:51;;;;;;;9.40;4.30;;;;;;;21.11;76.25;101185.46;93668;1204;100045;-62
2021/08/13 04:53:02;;;;;;;7.20;4.50;;;;;;;22.12;74.59;101188.34;93715;1199;86929;-63
2021/08/13 04:55:13;;;;;;;4.90;4.20;;;;;;;23.00;72.76;101184.67;93666;1204;94234;-64
2021/08/13 04:57:20;;;;;;;5.90;4.20;;;;;;;23.73;70.83;101187.41;93676;1196;78039;-61
2021/08/13 04:59:31;;;;;;;6.30;3.90;;;;;;;24.39;69.34;101182.54;93645;1190;81784;-62
2021/08/13 05:01:38;;;;;;;5.60;4.20;;;;;;;25.05;67.63;101181.59;93659;1204;98920;-64
2021/08/13 05:03:46;;;;;;;5.40;3.40;;;;;;;25.68;65.80;101182.80;93737;1199;87553;-58
2021/08/13 05:05:57;;;;;;;8.10;4.20;;;;;;;26.20;64.07;101194.09;93685;1198;94116;-59
2021/08/13 05:08:06;;;;;;;6.00;4.20;;;;;;;26.68;62.32;101193.80;93687;1204;79364;-63
2021/08/13 05:10:18;;;;;;;7.10;4.20;;;;;;;27.00;60.97;101188.83;93700;1204;82224;-64
2021/08/13 05:12:28;;;;;;;5.80;3.60;;;;;;;27.43;59.66;101183.60;93671;1196;98654;-59
2021/08/13 05:14:36;;;;;;;6.20;4.30;;;;;;;27.84;58.10;101186.23;93725;1195;88419;-59
2021/08/13 05:16:43;;;;;;;6.30;3.70;;;;;;;28.26;56.57;101185.59;93700;1195;94050;-60
2021/08/13 05:18:51;;;;;;;5.80;4.00;;;;;;;28.56;55.07;101179.78;93666;1196;79572;-59
2021/08/13 05:21:00;;;;;;;4.10;3.50;;;;;;;28.82;53.97;101185.60;93686;1205;82311;-59
2021/08/13 05:23:08;;;;;;;4.70;3.90;;;;;;;29.13;53.03;101181.63;93734;1204;97902;-60
2021/08/13 05:25:16;;;;;;;5.40;4.00;;;;;;;29.43;52.33;101180.96;93730;1204;88233;-59
2021/08/13 05:27:24;;;;;;;5.80;3.90;;;;;;;29.67;51.17;101177.71;93695;1204;94551;-60
2021/08/13 05:29:34;;;;;;;5.90;4.30;;;;;;;29.97;50.42;101183.76;93728;1203;79956;-59
2021/08/13 05:31:42;;;;;;;6.50;4.50;;;;;;;30.15;49.82;101184.69;93664;1204;82633;-60
2021/08/13 05:33:49;;;;;;;4.80;3.80;;;;;;;30.56;48.91;101184.25;93680;1204;99595;-59
2021/08/13 05:36:00;;;;;;;6.00;4.40;;;;;;;30.77;47.81;101184.86;93747;1196;89348;-59
2021/08/13 05:38:09;;;;;;;5.30;3.90;;;;;;;31.07;47.00;101185.25;93681;1203;94453;-63
2021/08/13 05:40:17;;;;;;;6.60;4.70;;;;;;;31.36;46.19;101187.11;93713;1204;79380;-63
2021/08/13 05:42:25;;;;;;;5.90;4.60;;;;;;;31.69;45.42;101183.17;93702;1204;81387;-59
2021/08/13 05:44:32;;;;;;;6.00;4.30;;;;;;;31.96;44.62;101183.84;93717;1196;98558;-59
2021/08/13 05:46:40;;;;;;;9.50;4.50;;;;;;;32.14;43.87;101177.86;93728;1204;88189;-58
2021/08/13 05:48:47;;;;;;;6.10;4.20;;;;;;;32.29;43.22;101179.90;93756;1204;93862;-63
2021/08/13 05:50:55;;;;;;;6.30;3.70;;;;;;;32.30;42.99;101178.61;93701;1204;80463;-63
2021/08/13 05:53:03;;;;;;;5.90;4.40;;;;;;;31.99;42.36;101179.54;93736;1196;81468;-63
2021/08/13 05:55:13;;;;;;;6.40;4.20;;;;;;;31.76;42.25;101184.05;93696;1204;98487;-63
2021/08/13 05:57:24;;;;;;;7.20;4.10;;;;;;;31.81;41.93;101184.05;93733;1204;87914;-63
2021/08/13 05:59:31;;;;;;;6.70;4.20;;;;;;;32.27;41.96;101183.95;93739;1204;94481;-64
2021/08/13 06:01:39;;;;;;;6.00;3.90;;;;;;;32.29;41.35;101184.52;93667;1189;78013;-64
2021/08/13 06:03:49;;;;;;;6.80;4.30;;;;;;;31.40;41.45;101185.42;93670;1204;81468;-59
2021/08/13 06:05:57;;;;;;;8.80;4.50;;;;;;;30.77;42.21;101187.55;93709;1205;98956;-60
2021/08/13 06:08:08;;;;;;;5.70;4.10;;;;;;;29.96;42.63;101189.98;93750;1195;87370;-59
2021/08/13 06:10:16;;;;;;;7.70;4.50;;;;;;;29.00;43.36;101186.98;93716;1195;92225;-59
2021/08/13 06:12:23;;;;;;;10.40;4.20;;;;;;;28.19;44.12;101189.02;93727;1196;78082;-62
2021/08/13 06:14:34;;;;;;;6.60;4.60;;;;;;;27.86;44.84;101188.51;93723;1204;81548;-63
2021/08/13 06:16:41;;;;;;;6.50;4.00;;;;;;;27.43;45.46;101187.48;93711;1204;98828;-62
2021/08/13 06:18:49;;;;;;;7.30;3.90;;;;;;;26.90;46.19;101191.70;93742;1196;86997;-63
2021/08/13 06:20:56;;;;;;;9.40;4.80;;;;;;;26.37;46.94;101193.48;93706;1196;93735;-63
2021/08/13 06:23:04;;;;;;;8.20;4.10;;;;;;;26.02;48.06;101196.23;93675;1196;79692;-62
2021/08/13 06:25:13;;;;;;;10.00;4.00;;;;;;;25.79;48.41;101192.11;93725;1204;82320;-62
2021/08/13 06:27:24;;;;;;;8.60;4.00;;;;;;;25.45;49.25;101188.33;93722;1196;97541;-62
2021/08/13 06:29:32;;;;;;;6.00;3.80;;;;;;;25.20;49.85;101188.94;93728;1196;86752;-63
2021/08/13 06:31:42;;;;;;;7.00;4.10;;;;;;;24.97;50.28;101190.54;93712;1195;92860;-63
2021/08/13 06:33:50;;;;;;;6.50;4.00;;;;;;;24.80;50.80;101184.44;93703;1204;79075;-59
2021/08/13 06:35:58;;;;;;;8.00;3.80;;;;;;;24.72;51.21;101187.39;93699;1205;83061;-59
2021/08/13 06:38:06;;;;;;;6.30;4.00;;;;;;;24.92;51.45;101188.84;93735;1204;98390;-59
2021/08/13 06:40:15;;;;;;;7.50;4.40;;;;;;;25.44;51.75;101182.51;93751;1203;88278;-59
2021/08/13 06:42:23;;;;;;;7.40;4.10;;;;;;;26.39;51.04;101190.02;93809;1203;93811;-63
2021/08/13 06:44:30;;;;;;;7.70;4.10;;;;;;;27.18;50.54;101188.85;93746;1203;79999;-63
2021/08/13 06:46:38;;;;;;;7.00;3.60;;;;;;;27.35;50.18;101189.48;93752;1202;81953;-63
2021/08/13 06:48:46;;;;;;;11.30;3.80;;;;;;;27.32;49.84;101194.16;93717;1203;98518;-70
2021/08/13 06:50:54;;;;;;;6.80;3.80;;;;;;;27.11;49.20;101192.46;93758;1203;87727;-71
2021/08/13 06:53:01;;;;;;;5.90;3.80;;;;;;;26.78;48.86;101193.80;93804;1203;93853;-71
2021/08/13 06:55:14;;;;;;;10.80;4.00;;;;;;;26.51;49.41;101192.95;93797;1203;79526;-72
2021/08/13 06:57:22;;;;;;;8.40;4.30;;;;;;;26.22;49.63;101196.88;93757;1203;80356;-62
2021/08/13 06:59:29;;;;;;;6.90;3.80;;;;;;;26.08;49.93;101199.69;93729;1203;98512;-62
2021/08/13 07:01:37;;;;;;;54.00;37.60;;;;;;;25.99;50.09;101197.21;93756;1196;86604;-60
2021/08/13 07:03:44;;;;;;;22.40;17.50;;;;;;;25.84;50.34;101194.73;93758;1203;92718;-60
2021/08/13 07:05:52;;;;;;;14.00;8.60;;;;;;;25.57;50.50;101196.20;93744;1203;78984;-60
2021/08/13 07:08:06;;;;;;;12.90;5.70;;;;;;;25.35;50.61;101191.63;93758;1203;80538;-60
2021/08/13 07:10:15;;;;;;;7.20;3.70;;;;;;;25.32;50.76;101193.88;93735;1203;98704;-60
2021/08/13 07:12:22;;;;;;;10.00;3.80;;;;;;;25.51;51.24;101187.59;93790;1195;87171;-70
2021/08/13 07:14:30;;;;;;;13.50;4.30;;;;;;;25.93;51.45;101193.27;93729;1203;94556;-70
2021/08/13 07:16:38;;;;;;;7.10;4.00;;;;;;;26.40;50.53;101194.26;93710;1189;78271;-70
2021/08/13 07:18:46;;;;;;;11.60;3.80;;;;;;;26.79;49.73;101193.64;93741;1203;80801;-69
2021/08/13 07:20:53;;;;;;;12.00;5.00;;;;;;;26.83;49.19;101194.55;93750;1203;99897;-70
2021/08/13 07:23:01;;;;;;;5.10;3.70;;;;;;;27.03;49.38;101194.52;93746;1203;87607;-70
2021/08/13 07:25:11;;;;;;;8.90;3.90;;;;;;;27.15;49.96;101197.18;93709;1203;91368;-69
2021/08/13 07:27:22;;;;;;;7.40;3.70;;;;;;;27.26;49.81;101195.94;93766;1198;78059;-60
2021/08/13 07:29:30;;;;;;;7.50;3.80;;;;;;;27.66;49.81;101191.25;93727;1204;82826;-60
2021/08/13 07:31:37;;;;;;;8.00;3.40;;;;;;;28.17;49.53;101191.92;93732;1203;98544;-60
2021/08/13 07:33:45;;;;;;;7.10;3.80;;;;;;;28.70;48.75;101195.02;93771;1203;89174;-70
2021/08/13 07:35:53;;;;;;;8.80;4.10;;;;;;;29.38;47.88;101190.45;93734;1195;94348;-74
2021/08/13 07:38:00;;;;;;;7.80;4.30;;;;;;;30.10;46.56;101191.61;93793;1195;79671;-60
2021/08/13 07:40:14;;;;;;;10.00;4.30;;;;;;;30.75;45.81;101198.11;93759;1196;81443;-60
2021/08/13 07:42:25;;;;;;;8.80;4.00;;;;;;;31.63;45.21;101192.67;93786;1195;97565;-72
2021/08/13 07:44:33;;;;;;;7.70;4.20;;;;;;;32.58;43.97;101196.98;93719;1203;88621;-73
2021/08/13 07:46:41;;;;;;;10.60;3.90;;;;;;;33.31;43.10;101198.27;93744;1203;94804;-76
2021/08/13 07:48:49;;;;;;;9.70;3.40;;;;;;;34.10;41.92;101197.23;93744;1189;78118;-71
2021/08/13 07:50:56;;;;;;;6.80;3.80;;;;;;;34.72;40.88;101198.35;93709;1203;81307;-73
2021/08/13 07:53:04;;;;;;;12.10;3.90;;;;;;;35.07;39.77;101201.46;93742;1203;99653;-71
2021/08/13 07:55:13;;;;;;;7.40;3.40;;;;;;;35.29;38.78;101202.42;93752;1204;88882;-76
2021/08/13 07:57:23;;;;;;;5.90;3.80;;;;;;;35.60;38.46;101202.91;93748;1203;94125;-61
2021/08/13 07:59:33;;;;;;;7.50;3.90;;;;;;;35.78;38.00;101198.71;93724;1204;80108;-62
2021/08/13 08:01:43;;;;;;;4.70;3.80;;;;;;;36.03;37.40;101204.96;93750;1203;82095;-61
2021/08/13 08:03:51;;;;;;;5.40;3.00;;;;;;;36.28;36.63;101202.29;93705;1203;99057;-71
2021/08/13 08:05:58;;;;;;;7.40;3.20;;;;;;;36.46;35.68;101200.73;93758;1203;88465;-70
2021/08/13 08:08:07;;;;;;;5.60;2.90;;;;;;;36.44;34.72;101199.92;93742;1203;93393;-70
2021/08/13 08:10:15;;;;;;;4.50;3.20;;;;;;;36.61;34.65;101200.61;93744;1196;78082;-70
2021/08/13 08:12:23;;;;;;;5.00;2.90;;;;;;;37.02;34.23;101205.63;93688;1203;81794;-62
2021/08/13 08:14:30;;;;;;;3.30;2.80;;;;;;;37.22;33.81;101203.84;93719;1203;98427;-59
2021/08/13 08:16:38;;;;;;;3.40;2.90;;;;;;;37.45;33.29;101198.00;93778;1203;87248;-61
2021/08/13 08:18:45;;;;;;;3.50;3.10;;;;;;;37.67;32.99;101203.75;93691;1203;92837;-70
2021/08/13 08:20:53;;;;;;;4.40;3.30;;;;;;;37.65;32.29;101204.41;93720;1203;79868;-71
2021/08/13 08:23:01;;;;;;;5.60;3.20;;;;;;;37.64;31.97;101201.63;93750;1203;82485;-72
2021/08/13 08:25:11;;;;;;;3.10;2.80;;;;;;;37.53;30.65;101200.70;93715;1203;99151;-72
2021/08/13 08:27:22;;;;;;;3.90;2.70;;;;;;;37.43;30.92;101199.93;93788;1196;88274;-61
2021/08/13 08:29:33;;;;;;;6.50;3.30;;;;;;;37.47;31.59;101195.09;93755;1203;93396;-61
2021/08/13 08:31:45;;;;;;;5.20;3.10;;;;;;;37.54;31.78;101195.97;93732;1203;79547;-59
2021/08/13 08:33:56;;;;;;;3.90;2.80;;;;;;;37.63;31.51;101198.36;93754;1203;81909;-71
2021/08/13 08:36:05;;;;;;;4.80;2.90;;;;;;;37.59;30.62;101197.84;93758;1205;97184;-72
2021/08/13 08:38:12;;;;;;;4.80;3.00;;;;;;;37.50;30.92;101198.00;93789;1203;86952;-73
2021/08/13 08:40:25;;;;;;;3.50;2.90;;;;;;;37.40;30.94;101198.05;93684;1195;92557;-72
2021/08/13 08:42:42;;;;;;;6.40;3.50;;;;;;;37.47;30.75;101198.70;93766;1196;80119;-68
2021/08/13 08:44:52;;;;;;;5.10;2.90;;;;;;;37.47;31.59;101200.09;93761;1203;81892;-74
2021/08/13 08:47:02;;;;;;;3.40;2.70;;;;;;;37.51;31.15;101206.52;93744;1203;98802;-61
2021/08/13 08:49:14;;;;;;;4.50;3.20;;;;;;;37.44;30.88;101202.88;93751;1203;88263;-60
2021/08/13 08:51:24;;;;;;;4.60;2.60;;;;;;;37.37;30.78;101206.95;93692;1204;94529;-61
2021/08/13 08:53:34;;;;;;;3.20;2.80;;;;;;;37.37;30.69;101201.89;93748;1203;78398;-70
2021/08/13 08:55:42;;;;;;;4.60;3.00;;;;;;;37.57;29.73;101205.68;93774;1195;80529;-72
2021/08/13 08:57:55;;;;;;;4.50;2.80;;;;;;;37.65;29.76;101206.73;93720;1203;99242;-60
2021/08/13 09:00:03;;;;;;;4.30;2.70;;;;;;;37.76;29.90;101204.29;93729;1203;87550;-59
2021/08/13 09:02:11;;;;;;;4.50;2.80;;;;;;;37.63;29.39;101204.34;93711;1204;93951;-66
2021/08/13 09:04:22;;;;;;;3.70;3.00;;;;;;;37.43;29.42;101203.89;93735;1196;78850;-66
2021/08/13 09:06:29;;;;;;;3.70;2.90;;;;;;;37.27;29.50;101200.88;93726;1203;81309;-66
2021/08/13 09:08:37;;;;;;;3.70;3.10;;;;;;;37.23;30.36;101200.66;93768;1203;98567;-59
2021/08/13 09:10:46;;;;;;;4.00;3.00;;;;;;;37.25;30.13;101199.77;93765;1203;86705;-60
2021/08/13 09:13:05;;;;;;;3.10;2.60;;;;;;;37.42;28.87;101199.52;93762;1203;93980;-59
2021/08/13 09:15:44;;;;;;;3.10;2.80;;;;;;;37.16;29.31;101198.80;93741;1203;78859;-59
2021/08/13 09:18:14;;;;;;;3.90;2.90;;;;;;;36.45;28.86;101200.64;93673;1199;80144;-66
2021/08/13 09:20:38;;;;;;;2.80;2.50;;;;;;;35.73;29.57;101203.40;93723;1205;98363;-67
2021/08/13 09:22:49;;;;;;;2.90;2.60;;;;;;;35.64;29.82;101205.00;93770;1203;87519;-66
2021/08/13 09:25:01;;;;;;;4.20;3.00;;;;;;;35.51;30.08;101207.08;93764;1202;94288;-67
2021/08/13 09:27:22;;;;;;;10.00;3.50;;;;;;;35.31;30.68;101203.64;93736;1203;79606;-59
2021/08/13 09:29:34;;;;;;;5.40;2.80;;;;;;;34.97;29.96;101200.04;93805;1203;81253;-60
2021/08/13 09:31:53;;;;;;;3.20;2.90;;;;;;;34.10;30.80;101200.89;93780;1203;99307;-60
2021/08/13 09:34:12;;;;;;;5.30;2.60;;;;;;;33.24;31.65;101199.63;93747;1203;88288;-67
2021/08/13 09:36:26;;;;;;;3.80;2.50;;;;;;;33.18;31.65;101196.60;93713;1203;92293;-67
2021/08/13 09:38:34;;;;;;;3.90;2.50;;;;;;;32.95;31.73;101198.25;93744;1196;79823;-59
2021/08/13 09:40:45;;;;;;;3.10;2.70;;;;;;;32.89;32.56;101196.05;93726;1189;80691;-59
2021/08/13 09:43:00;;;;;;;3.40;3.10;;;;;;;32.81;32.95;101200.16;93737;1195;98015;-61
2021/08/13 09:45:13;;;;;;;3.90;3.00;;;;;;;32.54;32.59;101200.48;93713;1203;87789;-61
2021/08/13 09:47:21;;;;;;;3.50;2.50;;;;;;;32.17;33.14;101196.98;93748;1203;94410;-62
2021/08/13 09:49:30;;;;;;;3.70;2.80;;;;;;;31.98;33.26;101197.28;93755;1203;79493;-61
2021/08/13 09:51:41;;;;;;;4.10;2.70;;;;;;;31.82;34.18;101195.83;93776;1203;81824;-61
2021/08/13 09:54:01;;;;;;;4.00;2.80;;;;;;;31.74;35.02;101198.78;93745;1203;98120;-60
2021/08/13 09:56:27;;;;;;;3.20;2.60;;;;;;;31.69;35.47;101197.44;93734;1204;86338;-60
2021/08/13 09:58:34;;;;;;;2.90;2.40;;;;;;;31.54;35.40;101195.32;93739;1196;94765;-60
2021/08/13 10:00:50;;;;;;;3.50;2.90;;;;;;;31.51;35.49;101193.23;93730;1189;79775;-60
2021/08/13 10:03:06;;;;;;;4.50;3.00;;;;;;;31.57;35.53;101193.09;93735;1195;79979;-60
2021/08/13 10:05:25;;;;;;;3.00;2.70;;;;;;;31.53;35.45;101192.56;93740;1203;99801;-60